sensor_id;sensor_type;location;lat;lon;timestamp;pressure;altitude;pressure_sealevel;temperature;humidity
79144;BME280;68551;47.484;19.092;2023-06-04T00:01:04;100668.31;;;15.82;46.72
79144;BME280;68551;47.484;19.092;2023-06-04T00:04:17;100665.38;;;15.89;46.64
79144;BME280;68551;47.484;19.092;2023-06-04T00:07:20;100672.47;;;15.85;46.67
79144;BME280;68551;47.484;19.092;2023-06-04T00:10:22;100674.63;;;15.83;47.22
79144;BME280;68551;47.484;19.092;2023-06-04T00:13:27;100676.88;;;15.86;46.88
79144;BME280;68551;47.484;19.092;2023-06-04T00:16:29;100688.44;;;15.88;46.75
79144;BME280;68551;47.484;19.092;2023-06-04T00:19:34;100675.47;;;15.83;46.53
79144;BME280;68551;47.484;19.092;2023-06-04T00:22:36;100670.63;;;15.74;46.97
79144;BME280;68551;47.484;19.092;2023-06-04T00:25:43;100671.22;;;15.76;46.93
79144;BME280;68551;47.484;19.092;2023-06-04T00:28:50;100643.66;;;15.54;47.00
79144;BME280;68551;47.484;19.092;2023-06-04T00:31:58;100662.16;;;15.58;46.64
79144;BME280;68551;47.484;19.092;2023-06-04T00:35:00;100669.66;;;15.63;47.08
79144;BME280;68551;47.484;19.092;2023-06-04T00:38:05;100669.88;;;15.62;47.06
79144;BME280;68551;47.484;19.092;2023-06-04T00:41:08;100668.31;;;15.66;46.26
79144;BME280;68551;47.484;19.092;2023-06-04T00:44:10;100658.00;;;15.56;45.95
79144;BME280;68551;47.484;19.092;2023-06-04T00:47:15;100664.38;;;15.45;45.99
79144;BME280;68551;47.484;19.092;2023-06-04T00:50:25;100669.28;;;15.43;45.45
79144;BME280;68551;47.484;19.092;2023-06-04T00:53:28;100674.78;;;15.43;45.79
79144;BME280;68551;47.484;19.092;2023-06-04T00:56:30;100673.63;;;15.39;46.02
79144;BME280;68551;47.484;19.092;2023-06-04T00:59:33;100666.78;;;15.41;45.56
79144;BME280;68551;47.484;19.092;2023-06-04T01:02:37;100662.78;;;15.32;45.52
79144;BME280;68551;47.484;19.092;2023-06-04T01:05:59;100669.69;;;15.35;45.80
79144;BME280;68551;47.484;19.092;2023-06-04T01:09:03;100641.13;;;15.19;46.00
79144;BME280;68551;47.484;19.092;2023-06-04T01:12:07;100654.53;;;15.32;46.16
79144;BME280;68551;47.484;19.092;2023-06-04T01:15:14;100662.88;;;15.37;45.88
79144;BME280;68551;47.484;19.092;2023-06-04T01:18:27;100657.88;;;15.34;45.75
79144;BME280;68551;47.484;19.092;2023-06-04T01:21:31;100656.03;;;15.23;46.00
79144;BME280;68551;47.484;19.092;2023-06-04T01:24:41;100662.78;;;15.32;45.65
79144;BME280;68551;47.484;19.092;2023-06-04T01:27:52;100661.13;;;15.31;45.42
79144;BME280;68551;47.484;19.092;2023-06-04T01:30:57;100658.38;;;15.31;45.76
79144;BME280;68551;47.484;19.092;2023-06-04T01:34:07;100650.06;;;15.26;45.91
79144;BME280;68551;47.484;19.092;2023-06-04T01:37:13;100664.78;;;15.20;46.49
79144;BME280;68551;47.484;19.092;2023-06-04T01:40:15;100664.53;;;15.21;45.98
79144;BME280;68551;47.484;19.092;2023-06-04T01:43:22;100668.44;;;15.25;46.00
79144;BME280;68551;47.484;19.092;2023-06-04T01:46:27;100665.47;;;15.27;46.41
79144;BME280;68551;47.484;19.092;2023-06-04T01:49:34;100662.47;;;15.29;46.54
79144;BME280;68551;47.484;19.092;2023-06-04T01:52:37;100665.47;;;15.27;46.29
79144;BME280;68551;47.484;19.092;2023-06-04T01:55:47;100678.94;;;15.29;45.47
79144;BME280;68551;47.484;19.092;2023-06-04T01:58:53;100664.78;;;15.20;46.44
79144;BME280;68551;47.484;19.092;2023-06-04T02:01:56;100668.28;;;15.15;46.14
79144;BME280;68551;47.484;19.092;2023-06-04T02:05:00;100665.00;;;15.18;45.93
79144;BME280;68551;47.484;19.092;2023-06-04T02:08:06;100676.69;;;15.25;45.94
79144;BME280;68551;47.484;19.092;2023-06-04T02:11:10;100672.50;;;15.23;45.97
79144;BME280;68551;47.484;19.092;2023-06-04T02:14:15;100680.16;;;15.21;46.12
79144;BME280;68551;47.484;19.092;2023-06-04T02:17:19;100676.16;;;15.12;46.72
79144;BME280;68551;47.484;19.092;2023-06-04T02:20:22;100674.97;;;15.08;47.11
79144;BME280;68551;47.484;19.092;2023-06-04T02:23:25;100671.75;;;15.11;46.95
79144;BME280;68551;47.484;19.092;2023-06-04T02:26:29;100675.75;;;15.20;46.88
79144;BME280;68551;47.484;19.092;2023-06-04T02:29:34;100681.72;;;15.17;46.29
79144;BME280;68551;47.484;19.092;2023-06-04T02:32:40;100685.53;;;15.16;46.31
79144;BME280;68551;47.484;19.092;2023-06-04T02:35:46;100682.72;;;15.11;46.69
79144;BME280;68551;47.484;19.092;2023-06-04T02:38:51;100682.56;;;15.17;46.88
79144;BME280;68551;47.484;19.092;2023-06-04T02:41:56;100674.25;;;15.12;46.51
79144;BME280;68551;47.484;19.092;2023-06-04T02:45:01;100684.13;;;14.97;47.68
79144;BME280;68551;47.484;19.092;2023-06-04T02:48:08;100676.59;;;14.92;47.79
79144;BME280;68551;47.484;19.092;2023-06-04T02:51:11;100678.38;;;14.98;47.58
79144;BME280;68551;47.484;19.092;2023-06-04T02:54:13;100679.00;;;14.88;48.30
79144;BME280;68551;47.484;19.092;2023-06-04T02:57:18;100660.44;;;14.79;48.53
79144;BME280;68551;47.484;19.092;2023-06-04T03:00:21;100684.59;;;14.94;48.31
79144;BME280;68551;47.484;19.092;2023-06-04T03:03:24;100688.19;;;14.94;48.69
79144;BME280;68551;47.484;19.092;2023-06-04T03:06:26;100679.00;;;14.88;48.57
79144;BME280;68551;47.484;19.092;2023-06-04T03:09:31;100671.13;;;14.92;48.45
79144;BME280;68551;47.484;19.092;2023-06-04T03:12:33;100667.34;;;14.81;48.65
79144;BME280;68551;47.484;19.092;2023-06-04T03:15:35;100677.38;;;14.87;48.22
79144;BME280;68551;47.484;19.092;2023-06-04T03:18:42;100674.28;;;14.84;48.34
79144;BME280;68551;47.484;19.092;2023-06-04T03:21:44;100670.09;;;14.81;48.55
79144;BME280;68551;47.484;19.092;2023-06-04T03:24:52;100672.84;;;14.81;48.57
79144;BME280;68551;47.484;19.092;2023-06-04T03:27:59;100682.56;;;14.89;48.16
79144;BME280;68551;47.484;19.092;2023-06-04T03:31:02;100691.66;;;14.89;48.14
79144;BME280;68551;47.484;19.092;2023-06-04T03:34:04;100696.16;;;14.96;48.91
79144;BME280;68551;47.484;19.092;2023-06-04T03:37:09;100694.16;;;14.91;48.47
79144;BME280;68551;47.484;19.092;2023-06-04T03:40:12;100705.66;;;15.05;48.29
79144;BME280;68551;47.484;19.092;2023-06-04T03:43:18;100699.19;;;15.11;47.62
79144;BME280;68551;47.484;19.092;2023-06-04T03:46:22;100706.84;;;15.09;48.19
79144;BME280;68551;47.484;19.092;2023-06-04T03:49:32;100696.34;;;15.06;48.59
79144;BME280;68551;47.484;19.092;2023-06-04T03:52:38;100695.72;;;15.15;48.37
79144;BME280;68551;47.484;19.092;2023-06-04T03:55:43;100701.75;;;15.29;47.37
79144;BME280;68551;47.484;19.092;2023-06-04T03:58:50;100704.78;;;15.33;47.38
79144;BME280;68551;47.484;19.092;2023-06-04T04:01:53;100702.41;;;15.36;46.92
79144;BME280;68551;47.484;19.092;2023-06-04T04:04:55;100708.00;;;15.41;46.87
79144;BME280;68551;47.484;19.092;2023-06-04T04:08:01;100710.19;;;15.56;46.53
79144;BME280;68551;47.484;19.092;2023-06-04T04:11:08;100719.59;;;15.60;45.76
79144;BME280;68551;47.484;19.092;2023-06-04T04:14:19;100718.06;;;15.52;45.86
79144;BME280;68551;47.484;19.092;2023-06-04T04:17:22;100725.06;;;15.43;46.49
79144;BME280;68551;47.484;19.092;2023-06-04T04:20:24;100724.94;;;15.38;46.75
79144;BME280;68551;47.484;19.092;2023-06-04T04:23:32;100730.06;;;15.63;46.54
79144;BME280;68551;47.484;19.092;2023-06-04T04:26:35;100730.75;;;15.70;46.40
79144;BME280;68551;47.484;19.092;2023-06-04T04:29:39;100719.44;;;15.67;45.44
79144;BME280;68551;47.484;19.092;2023-06-04T04:32:46;100727.44;;;15.85;45.54
79144;BME280;68551;47.484;19.092;2023-06-04T04:35:59;100727.81;;;16.10;45.76
79144;BME280;68551;47.484;19.092;2023-06-04T04:39:04;100723.03;;;16.22;45.97
79144;BME280;68551;47.484;19.092;2023-06-04T04:42:10;100726.00;;;16.38;46.01
79144;BME280;68551;47.484;19.092;2023-06-04T04:45:15;100725.19;;;16.59;45.28
79144;BME280;68551;47.484;19.092;2023-06-04T04:48:19;100724.50;;;16.90;44.61
79144;BME280;68551;47.484;19.092;2023-06-04T04:51:23;100722.00;;;17.11;42.60
79144;BME280;68551;47.484;19.092;2023-06-04T04:54:27;100734.94;;;17.10;42.15
79144;BME280;68551;47.484;19.092;2023-06-04T04:57:29;100727.63;;;16.99;42.15
79144;BME280;68551;47.484;19.092;2023-06-04T05:00:34;100725.91;;;16.93;42.77
79144;BME280;68551;47.484;19.092;2023-06-04T05:03:37;100721.69;;;16.85;43.18
79144;BME280;68551;47.484;19.092;2023-06-04T05:06:42;100738.53;;;16.89;42.95
79144;BME280;68551;47.484;19.092;2023-06-04T05:09:47;100735.59;;;16.95;42.13
79144;BME280;68551;47.484;19.092;2023-06-04T05:12:54;100714.78;;;16.83;41.53
79144;BME280;68551;47.484;19.092;2023-06-04T05:16:00;100727.25;;;16.90;42.19
79144;BME280;68551;47.484;19.092;2023-06-04T05:19:13;100726.75;;;16.93;42.18
79144;BME280;68551;47.484;19.092;2023-06-04T05:22:16;100725.53;;;16.62;42.85
79144;BME280;68551;47.484;19.092;2023-06-04T05:25:23;100742.75;;;16.75;43.13
79144;BME280;68551;47.484;19.092;2023-06-04T05:28:28;100745.97;;;16.67;43.90
79144;BME280;68551;47.484;19.092;2023-06-04T05:31:33;100749.91;;;16.76;43.14
79144;BME280;68551;47.484;19.092;2023-06-04T05:34:38;100743.25;;;16.72;42.78
79144;BME280;68551;47.484;19.092;2023-06-04T05:37:42;100742.97;;;16.68;43.18
79144;BME280;68551;47.484;19.092;2023-06-04T05:40:49;100763.25;;;16.84;43.36
79144;BME280;68551;47.484;19.092;2023-06-04T05:43:54;100760.06;;;16.70;43.08
79144;BME280;68551;47.484;19.092;2023-06-04T05:46:59;100758.56;;;16.84;42.25
79144;BME280;68551;47.484;19.092;2023-06-04T05:50:04;100751.44;;;16.88;42.24
79144;BME280;68551;47.484;19.092;2023-06-04T05:53:08;100758.69;;;16.94;42.69
79144;BME280;68551;47.484;19.092;2023-06-04T05:56:13;100750.38;;;16.89;42.93
79144;BME280;68551;47.484;19.092;2023-06-04T05:59:16;100752.34;;;16.94;43.74
79144;BME280;68551;47.484;19.092;2023-06-04T06:02:21;100739.75;;;16.98;43.21
79144;BME280;68551;47.484;19.092;2023-06-04T06:05:24;100754.03;;;17.22;42.13
79144;BME280;68551;47.484;19.092;2023-06-04T06:08:29;100744.16;;;17.53;42.00
79144;BME280;68551;47.484;19.092;2023-06-04T06:11:31;100744.88;;;18.44;39.83
79144;BME280;68551;47.484;19.092;2023-06-04T06:14:38;100744.34;;;19.04;37.40
79144;BME280;68551;47.484;19.092;2023-06-04T06:17:43;100740.06;;;19.79;36.96
79144;BME280;68551;47.484;19.092;2023-06-04T06:20:46;100743.94;;;19.83;36.86
79144;BME280;68551;47.484;19.092;2023-06-04T06:23:51;100746.72;;;20.04;36.54
79144;BME280;68551;47.484;19.092;2023-06-04T06:26:56;100743.59;;;19.44;36.94
79144;BME280;68551;47.484;19.092;2023-06-04T06:29:59;100752.25;;;19.73;35.93
79144;BME280;68551;47.484;19.092;2023-06-04T06:33:03;100761.09;;;19.75;35.62
79144;BME280;68551;47.484;19.092;2023-06-04T06:36:14;100761.06;;;19.65;35.56
79144;BME280;68551;47.484;19.092;2023-06-04T06:39:20;100753.84;;;19.44;35.98
79144;BME280;68551;47.484;19.092;2023-06-04T06:42:23;100758.59;;;19.64;36.67
79144;BME280;68551;47.484;19.092;2023-06-04T06:45:28;100761.59;;;19.47;36.68
79144;BME280;68551;47.484;19.092;2023-06-04T06:48:31;100754.91;;;19.28;36.97
79144;BME280;68551;47.484;19.092;2023-06-04T06:51:33;100764.38;;;19.67;35.64
79144;BME280;68551;47.484;19.092;2023-06-04T06:54:38;100773.81;;;20.07;35.66
79144;BME280;68551;47.484;19.092;2023-06-04T06:57:40;100775.75;;;20.11;35.17
79144;BME280;68551;47.484;19.092;2023-06-04T07:00:43;100777.69;;;19.96;35.46
79144;BME280;68551;47.484;19.092;2023-06-04T07:03:48;100789.56;;;19.96;36.31
79144;BME280;68551;47.484;19.092;2023-06-04T07:06:51;100790.13;;;19.93;36.16
79144;BME280;68551;47.484;19.092;2023-06-04T07:09:54;100788.47;;;20.07;35.91
79144;BME280;68551;47.484;19.092;2023-06-04T07:13:00;100784.88;;;20.12;35.45
79144;BME280;68551;47.484;19.092;2023-06-04T07:16:05;100784.88;;;20.37;34.83
79144;BME280;68551;47.484;19.092;2023-06-04T07:19:07;100778.19;;;20.53;35.70
79144;BME280;68551;47.484;19.092;2023-06-04T07:22:10;100791.47;;;20.62;35.17
79144;BME280;68551;47.484;19.092;2023-06-04T07:25:14;100788.66;;;20.77;35.53
79144;BME280;68551;47.484;19.092;2023-06-04T07:28:20;100784.06;;;21.11;35.65
79144;BME280;68551;47.484;19.092;2023-06-04T07:31:23;100782.75;;;21.58;34.37
79144;BME280;68551;47.484;19.092;2023-06-04T07:34:27;100778.50;;;21.66;33.93
79144;BME280;68551;47.484;19.092;2023-06-04T07:37:30;100770.09;;;21.81;34.32
79144;BME280;68551;47.484;19.092;2023-06-04T07:40:32;100787.56;;;21.81;33.20
79144;BME280;68551;47.484;19.092;2023-06-04T07:43:37;100774.69;;;22.01;32.57
79144;BME280;68551;47.484;19.092;2023-06-04T07:46:42;100767.22;;;22.25;32.65
79144;BME280;68551;47.484;19.092;2023-06-04T07:49:49;100766.78;;;22.13;32.69
79144;BME280;68551;47.484;19.092;2023-06-04T07:53:04;100771.09;;;21.90;34.27
79144;BME280;68551;47.484;19.092;2023-06-04T07:56:07;100780.31;;;21.85;33.90
79144;BME280;68551;47.484;19.092;2023-06-04T07:59:12;100791.34;;;22.01;33.62
79144;BME280;68551;47.484;19.092;2023-06-04T08:02:17;100783.44;;;22.13;33.05
79144;BME280;68551;47.484;19.092;2023-06-04T08:05:22;100793.28;;;22.29;33.06
79144;BME280;68551;47.484;19.092;2023-06-04T08:08:30;100789.13;;;22.55;33.39
79144;BME280;68551;47.484;19.092;2023-06-04T08:11:34;100792.16;;;22.59;32.12
79144;BME280;68551;47.484;19.092;2023-06-04T08:14:39;100785.41;;;22.41;31.34
79144;BME280;68551;47.484;19.092;2023-06-04T08:17:42;100781.13;;;22.78;32.37
79144;BME280;68551;47.484;19.092;2023-06-04T08:20:46;100792.16;;;22.59;31.63
79144;BME280;68551;47.484;19.092;2023-06-04T08:23:49;100790.94;;;22.41;30.41
79144;BME280;68551;47.484;19.092;2023-06-04T08:26:52;100767.69;;;22.32;30.48
79144;BME280;68551;47.484;19.092;2023-06-04T08:29:55;100788.38;;;22.74;31.47
79144;BME280;68551;47.484;19.092;2023-06-04T08:33:00;100781.94;;;23.02;30.43
79144;BME280;68551;47.484;19.092;2023-06-04T08:36:02;100788.38;;;23.21;30.54
79144;BME280;68551;47.484;19.092;2023-06-04T08:39:07;100779.22;;;23.40;30.41
79144;BME280;68551;47.484;19.092;2023-06-04T08:42:16;100779.00;;;23.74;31.01
79144;BME280;68551;47.484;19.092;2023-06-04T08:45:23;100788.13;;;24.12;31.11
79144;BME280;68551;47.484;19.092;2023-06-04T08:48:29;100783.38;;;24.45;28.20
79144;BME280;68551;47.484;19.092;2023-06-04T08:51:34;100761.53;;;24.65;27.59
79144;BME280;68551;47.484;19.092;2023-06-04T08:54:41;100769.16;;;24.73;26.73
79144;BME280;68551;47.484;19.092;2023-06-04T08:57:45;100770.81;;;24.47;27.65
79144;BME280;68551;47.484;19.092;2023-06-04T09:00:49;100738.50;;;23.30;28.49
79144;BME280;68551;47.484;19.092;2023-06-04T09:03:52;100768.28;;;23.67;28.32
79144;BME280;68551;47.484;19.092;2023-06-04T09:07:01;100768.50;;;23.52;28.83
79144;BME280;68551;47.484;19.092;2023-06-04T09:10:07;100773.31;;;23.65;29.78
79144;BME280;68551;47.484;19.092;2023-06-04T09:13:15;100768.69;;;23.37;30.05
79144;BME280;68551;47.484;19.092;2023-06-04T09:16:19;100775.75;;;23.29;31.06
79144;BME280;68551;47.484;19.092;2023-06-04T09:19:22;100778.31;;;23.25;31.24
79144;BME280;68551;47.484;19.092;2023-06-04T09:22:34;100774.31;;;22.89;31.28
79144;BME280;68551;47.484;19.092;2023-06-04T09:25:42;100772.41;;;22.60;31.78
79144;BME280;68551;47.484;19.092;2023-06-04T09:28:47;100769.56;;;22.66;31.20
79144;BME280;68551;47.484;19.092;2023-06-04T09:31:59;100776.84;;;22.61;31.39
79144;BME280;68551;47.484;19.092;2023-06-04T09:35:14;100791.91;;;22.55;30.92
79144;BME280;68551;47.484;19.092;2023-06-04T09:38:19;100781.34;;;22.57;31.31
79144;BME280;68551;47.484;19.092;2023-06-04T09:41:22;100784.47;;;22.51;31.42
79144;BME280;68551;47.484;19.092;2023-06-04T09:44:30;100780.72;;;22.60;31.56
79144;BME280;68551;47.484;19.092;2023-06-04T09:47:44;100784.25;;;22.71;31.18
79144;BME280;68551;47.484;19.092;2023-06-04T09:50:46;100786.19;;;22.71;31.17
79144;BME280;68551;47.484;19.092;2023-06-04T09:53:56;100789.56;;;22.68;31.29
79144;BME280;68551;47.484;19.092;2023-06-04T09:57:02;100796.88;;;22.58;31.14
79144;BME280;68551;47.484;19.092;2023-06-04T10:00:04;100769.75;;;22.50;32.08
79144;BME280;68551;47.484;19.092;2023-06-04T10:03:14;100788.22;;;22.60;32.12
79144;BME280;68551;47.484;19.092;2023-06-04T10:06:20;100793.22;;;22.63;32.20
79144;BME280;68551;47.484;19.092;2023-06-04T10:09:23;100793.78;;;22.60;32.95
79144;BME280;68551;47.484;19.092;2023-06-04T10:12:37;100793.16;;;22.44;32.95
79144;BME280;68551;47.484;19.092;2023-06-04T10:15:42;100787.53;;;22.49;33.84
79144;BME280;68551;47.484;19.092;2023-06-04T10:18:45;100794.03;;;22.63;33.39
79144;BME280;68551;47.484;19.092;2023-06-04T10:21:49;100791.63;;;22.57;33.76
79144;BME280;68551;47.484;19.092;2023-06-04T10:24:52;100794.16;;;22.53;32.99
79144;BME280;68551;47.484;19.092;2023-06-04T10:27:56;100782.56;;;22.46;32.29
79144;BME280;68551;47.484;19.092;2023-06-04T10:31:00;100790.69;;;22.38;32.84
79144;BME280;68551;47.484;19.092;2023-06-04T10:34:05;100785.41;;;22.41;34.06
79144;BME280;68551;47.484;19.092;2023-06-04T10:37:39;100788.47;;;22.40;33.47
79144;BME280;68551;47.484;19.092;2023-06-04T10:40:42;100789.53;;;22.44;33.59
79144;BME280;68551;47.484;19.092;2023-06-04T10:43:46;100786.97;;;22.47;33.45
79144;BME280;68551;47.484;19.092;2023-06-04T10:46:51;100785.81;;;22.53;33.44
79144;BME280;68551;47.484;19.092;2023-06-04T10:49:54;100783.50;;;22.60;32.51
79144;BME280;68551;47.484;19.092;2023-06-04T10:52:59;100796.28;;;22.61;32.77
79144;BME280;68551;47.484;19.092;2023-06-04T10:56:05;100788.59;;;22.53;32.48
79144;BME280;68551;47.484;19.092;2023-06-04T10:59:16;100780.22;;;22.58;33.33
79144;BME280;68551;47.484;19.092;2023-06-04T11:02:19;100780.31;;;22.77;33.10
79144;BME280;68551;47.484;19.092;2023-06-04T11:05:34;100783.34;;;22.76;33.49
79144;BME280;68551;47.484;19.092;2023-06-04T11:08:42;100781.63;;;22.85;33.54
79144;BME280;68551;47.484;19.092;2023-06-04T11:12:01;100787.00;;;23.00;32.37
79144;BME280;68551;47.484;19.092;2023-06-04T11:15:04;100782.13;;;23.11;32.29
79144;BME280;68551;47.484;19.092;2023-06-04T11:18:07;100778.75;;;23.32;32.25
79144;BME280;68551;47.484;19.092;2023-06-04T11:21:12;100782.97;;;23.49;30.71
79144;BME280;68551;47.484;19.092;2023-06-04T11:24:19;100775.19;;;23.51;31.08
79144;BME280;68551;47.484;19.092;2023-06-04T11:27:23;100780.59;;;23.42;31.32
79144;BME280;68551;47.484;19.092;2023-06-04T11:30:40;100782.34;;;23.57;31.61
79144;BME280;68551;47.484;19.092;2023-06-04T11:33:45;100780.41;;;23.33;32.06
79144;BME280;68551;47.484;19.092;2023-06-04T11:36:48;100781.72;;;23.41;32.49
79144;BME280;68551;47.484;19.092;2023-06-04T11:39:51;100782.06;;;23.34;31.17
79144;BME280;68551;47.484;19.092;2023-06-04T11:42:54;100777.09;;;23.31;30.67
79144;BME280;68551;47.484;19.092;2023-06-04T11:46:06;100773.88;;;23.24;31.37
79144;BME280;68551;47.484;19.092;2023-06-04T11:49:15;100784.31;;;23.32;31.01
79144;BME280;68551;47.484;19.092;2023-06-04T11:52:20;100768.84;;;23.26;30.55
79144;BME280;68551;47.484;19.092;2023-06-04T11:55:26;100763.78;;;23.10;31.76
79144;BME280;68551;47.484;19.092;2023-06-04T11:58:30;100780.69;;;23.13;31.11
79144;BME280;68551;47.484;19.092;2023-06-04T12:01:38;100788.03;;;23.04;31.29
79144;BME280;68551;47.484;19.092;2023-06-04T12:04:41;100790.34;;;22.97;32.21
79144;BME280;68551;47.484;19.092;2023-06-04T12:07:43;100790.13;;;22.93;34.34
79144;BME280;68551;47.484;19.092;2023-06-04T12:10:50;100771.38;;;22.80;33.47
79144;BME280;68551;47.484;19.092;2023-06-04T12:13:56;100776.44;;;22.73;33.85
79144;BME280;68551;47.484;19.092;2023-06-04T12:17:00;100785.44;;;22.89;33.34
79144;BME280;68551;47.484;19.092;2023-06-04T12:20:04;100791.47;;;22.96;32.92
79144;BME280;68551;47.484;19.092;2023-06-04T12:23:19;100784.81;;;22.97;32.55
79144;BME280;68551;47.484;19.092;2023-06-04T12:26:25;100779.44;;;22.82;33.98
79144;BME280;68551;47.484;19.092;2023-06-04T12:29:33;100784.31;;;22.90;33.28
79144;BME280;68551;47.484;19.092;2023-06-04T12:32:36;100777.34;;;22.92;34.07
79144;BME280;68551;47.484;19.092;2023-06-04T12:35:44;100785.34;;;22.99;33.04
79144;BME280;68551;47.484;19.092;2023-06-04T12:38:49;100787.00;;;23.00;33.60
79144;BME280;68551;47.484;19.092;2023-06-04T12:41:57;100781.63;;;23.04;32.96
79144;BME280;68551;47.484;19.092;2023-06-04T12:45:01;100784.66;;;23.07;33.57
79144;BME280;68551;47.484;19.092;2023-06-04T12:48:06;100780.91;;;22.98;31.70
79144;BME280;68551;47.484;19.092;2023-06-04T12:51:11;100769.78;;;23.17;32.35
79144;BME280;68551;47.484;19.092;2023-06-04T12:54:20;100772.75;;;23.25;32.84
79144;BME280;68551;47.484;19.092;2023-06-04T12:57:23;100762.25;;;23.41;31.79
79144;BME280;68551;47.484;19.092;2023-06-04T13:00:28;100769.28;;;23.33;30.95
79144;BME280;68551;47.484;19.092;2023-06-04T13:03:30;100757.34;;;23.33;31.57
79144;BME280;68551;47.484;19.092;2023-06-04T13:06:36;100768.69;;;23.37;32.19
79144;BME280;68551;47.484;19.092;2023-06-04T13:09:39;100746.66;;;23.21;32.96
79144;BME280;68551;47.484;19.092;2023-06-04T13:12:44;100767.03;;;23.36;32.28
79144;BME280;68551;47.484;19.092;2023-06-04T13:15:46;100759.47;;;23.41;31.24
79144;BME280;68551;47.484;19.092;2023-06-04T13:18:51;100761.19;;;23.37;31.48
79144;BME280;68551;47.484;19.092;2023-06-04T13:21:53;100753.94;;;23.17;31.19
79144;BME280;68551;47.484;19.092;2023-06-04T13:24:58;100755.88;;;22.98;31.19
79144;BME280;68551;47.484;19.092;2023-06-04T13:28:02;100756.31;;;23.05;31.29
79144;BME280;68551;47.484;19.092;2023-06-04T13:31:04;100741.78;;;23.13;31.39
79144;BME280;68551;47.484;19.092;2023-06-04T13:34:07;100749.09;;;23.28;31.34
79144;BME280;68551;47.484;19.092;2023-06-04T13:37:28;100732.47;;;23.23;31.80
79144;BME280;68551;47.484;19.092;2023-06-04T13:40:35;100741.03;;;23.26;30.84
79144;BME280;68551;47.484;19.092;2023-06-04T13:43:38;100734.19;;;23.38;31.55
79144;BME280;68551;47.484;19.092;2023-06-04T13:46:41;100742.53;;;23.38;30.96
79144;BME280;68551;47.484;19.092;2023-06-04T13:49:46;100730.34;;;23.33;31.19
79144;BME280;68551;47.484;19.092;2023-06-04T13:52:48;100717.72;;;23.22;31.90
79144;BME280;68551;47.484;19.092;2023-06-04T13:55:51;100730.88;;;23.17;32.22
79144;BME280;68551;47.484;19.092;2023-06-04T13:58:59;100724.09;;;23.04;32.13
79144;BME280;68551;47.484;19.092;2023-06-04T14:02:06;100728.69;;;22.95;32.50
79144;BME280;68551;47.484;19.092;2023-06-04T14:05:09;100714.47;;;22.96;32.44
79144;BME280;68551;47.484;19.092;2023-06-04T14:08:14;100721.63;;;23.21;31.94
79144;BME280;68551;47.484;19.092;2023-06-04T14:11:17;100716.16;;;23.35;31.91
79144;BME280;68551;47.484;19.092;2023-06-04T14:14:20;100707.19;;;23.19;32.29
79144;BME280;68551;47.484;19.092;2023-06-04T14:17:25;100711.81;;;23.29;32.15
79144;BME280;68551;47.484;19.092;2023-06-04T14:20:28;100705.03;;;23.35;32.42
79144;BME280;68551;47.484;19.092;2023-06-04T14:23:32;100710.22;;;23.42;32.41
79144;BME280;68551;47.484;19.092;2023-06-04T14:26:35;100721.25;;;23.47;32.23
79144;BME280;68551;47.484;19.092;2023-06-04T14:29:37;100713.38;;;23.35;32.24
79144;BME280;68551;47.484;19.092;2023-06-04T14:32:42;100700.97;;;23.27;31.87
79144;BME280;68551;47.484;19.092;2023-06-04T14:35:44;100709.03;;;23.29;32.34
79144;BME280;68551;47.484;19.092;2023-06-04T14:38:49;100702.53;;;23.33;32.95
79144;BME280;68551;47.484;19.092;2023-06-04T14:41:52;100701.41;;;23.34;32.41
79144;BME280;68551;47.484;19.092;2023-06-04T14:44:59;100704.22;;;23.16;32.89
79144;BME280;68551;47.484;19.092;2023-06-04T14:48:02;100707.28;;;22.95;33.17
79144;BME280;68551;47.484;19.092;2023-06-04T14:51:21;100698.78;;;22.87;33.44
79144;BME280;68551;47.484;19.092;2023-06-04T14:54:24;100702.16;;;23.03;33.47
79144;BME280;68551;47.484;19.092;2023-06-04T14:57:29;100698.88;;;23.01;33.55
79144;BME280;68551;47.484;19.092;2023-06-04T15:00:34;100697.22;;;23.00;33.73
79144;BME280;68551;47.484;19.092;2023-06-04T15:03:42;100696.88;;;22.82;33.95
79144;BME280;68551;47.484;19.092;2023-06-04T15:06:44;100702.06;;;22.89;34.11
79144;BME280;68551;47.484;19.092;2023-06-04T15:09:51;100696.97;;;22.96;33.69
79144;BME280;68551;47.484;19.092;2023-06-04T15:12:54;100692.00;;;22.93;33.76
79144;BME280;68551;47.484;19.092;2023-06-04T15:15:57;100668.72;;;22.89;33.94
79144;BME280;68551;47.484;19.092;2023-06-04T15:19:01;100683.09;;;22.96;34.24
79144;BME280;68551;47.484;19.092;2023-06-04T15:22:04;100677.69;;;22.86;34.23
79144;BME280;68551;47.484;19.092;2023-06-04T15:25:07;100674.78;;;22.72;34.23
79144;BME280;68551;47.484;19.092;2023-06-04T15:28:11;100673.94;;;22.72;36.45
79144;BME280;68551;47.484;19.092;2023-06-04T15:31:16;100677.50;;;22.53;37.72
79144;BME280;68551;47.484;19.092;2023-06-04T15:34:19;100676.56;;;22.39;39.33
79144;BME280;68551;47.484;19.092;2023-06-04T15:37:23;100678.22;;;22.40;39.28
79144;BME280;68551;47.484;19.092;2023-06-04T15:40:26;100674.66;;;22.35;39.85
79144;BME280;68551;47.484;19.092;2023-06-04T15:43:29;100685.06;;;22.24;40.58
79144;BME280;68551;47.484;19.092;2023-06-04T15:46:31;100674.22;;;22.27;41.09
79144;BME280;68551;47.484;19.092;2023-06-04T15:49:36;100680.25;;;22.06;41.62
79144;BME280;68551;47.484;19.092;2023-06-04T15:52:41;100661.13;;;22.04;41.75
79144;BME280;68551;47.484;19.092;2023-06-04T15:55:43;100670.34;;;21.94;42.56